createdAt,value
2022-12-20T00:00:51.987Z,2.39
2022-12-20T00:03:20.302Z,2.47
2022-12-20T00:05:47.805Z,2.54
2022-12-20T00:08:14.746Z,2.41
2022-12-20T00:10:43.925Z,2.54
2022-12-20T00:13:12.128Z,2.54
2022-12-20T00:15:38.945Z,2.51
2022-12-20T00:18:05.791Z,2.49
2022-12-20T00:20:32.681Z,2.53
2022-12-20T00:22:59.447Z,2.48
2022-12-20T00:25:26.219Z,2.63
2022-12-20T00:27:53.020Z,2.79
2022-12-20T00:30:20.072Z,2.79
2022-12-20T00:32:47.128Z,2.69
2022-12-20T00:35:14.065Z,2.64
2022-12-20T00:37:40.815Z,2.63
2022-12-20T00:40:08.219Z,2.65
2022-12-20T00:42:35.003Z,2.58
2022-12-20T00:45:01.668Z,2.59
2022-12-20T00:47:28.347Z,2.71
2022-12-20T00:49:55.134Z,2.77
2022-12-20T00:52:22.374Z,2.78
2022-12-20T00:54:49.218Z,2.81
2022-12-20T00:57:15.843Z,2.72
2022-12-20T00:59:42.525Z,2.65
2022-12-20T01:02:09.363Z,2.73
2022-12-20T01:04:36.241Z,2.75
2022-12-20T01:07:03.420Z,2.59
2022-12-20T01:09:30.123Z,2.63
2022-12-20T01:11:56.820Z,2.57
2022-12-20T01:14:23.590Z,2.58
2022-12-20T01:16:50.436Z,2.59
2022-12-20T01:19:18.532Z,2.63
2022-12-20T01:21:45.235Z,2.78
2022-12-20T01:24:18.126Z,2.67
2022-12-20T01:26:45.682Z,2.68
2022-12-20T01:29:14.217Z,2.68
2022-12-20T01:31:43.384Z,2.53
2022-12-20T01:34:10.589Z,2.57
2022-12-20T01:36:38.842Z,2.65
2022-12-20T01:39:13.324Z,2.61
2022-12-20T01:41:41.120Z,2.54
2022-12-20T01:44:17.069Z,2.51
2022-12-20T01:46:46.437Z,2.54
2022-12-20T01:49:18.867Z,2.55
2022-12-20T01:51:50.442Z,2.58
2022-12-20T01:54:45.114Z,2.55
2022-12-20T01:57:16.436Z,2.42
2022-12-20T01:59:46.631Z,2.44
2022-12-20T02:02:13.654Z,2.52
2022-12-20T02:04:40.741Z,2.53
2022-12-20T02:07:11.168Z,2.61
2022-12-20T02:09:38.877Z,2.56
2022-12-20T02:12:21.665Z,2.62
2022-12-20T02:15:13.847Z,2.58
2022-12-20T02:18:05.301Z,2.46
2022-12-20T02:20:47.262Z,2.56
2022-12-20T02:24:02.227Z,2.53
2022-12-20T02:26:31.864Z,2.55
2022-12-20T02:29:20.423Z,2.57
2022-12-20T02:31:55.272Z,2.56
2022-12-20T02:34:25.203Z,2.64
2022-12-20T02:36:52.416Z,2.51
2022-12-20T02:39:19.795Z,2.54
2022-12-20T02:42:01.605Z,2.41
2022-12-20T02:44:50.605Z,2.44
2022-12-20T02:47:36.345Z,2.52
2022-12-20T02:50:04.535Z,2.38
2022-12-20T02:52:32.184Z,2.50
2022-12-20T02:55:01.013Z,2.42
2022-12-20T02:57:51.220Z,2.45
2022-12-20T03:00:23.383Z,2.57
2022-12-20T03:03:09.939Z,2.54
2022-12-20T03:05:45.379Z,2.54
2022-12-20T03:08:13.065Z,2.52
2022-12-20T03:10:40.195Z,2.55
2022-12-20T03:13:07.009Z,2.63
2022-12-20T03:15:35.364Z,2.59
2022-12-20T03:18:03.412Z,2.60
2022-12-20T03:20:30.378Z,2.63
2022-12-20T03:22:57.202Z,2.63
2022-12-20T03:25:24.097Z,2.75
2022-12-20T03:27:51.084Z,2.61
2022-12-20T03:30:18.165Z,2.56
2022-12-20T03:32:44.982Z,2.58
2022-12-20T03:35:12.443Z,2.88
2022-12-20T03:37:41.360Z,2.90
2022-12-20T03:40:09.753Z,2.93
2022-12-20T03:42:37.105Z,2.89
2022-12-20T03:45:04.440Z,2.86
2022-12-20T03:47:31.231Z,2.79
2022-12-20T03:49:58.181Z,2.86
2022-12-20T03:52:24.972Z,2.91
2022-12-20T03:54:51.769Z,2.96
2022-12-20T03:57:21.101Z,2.84
2022-12-20T03:59:50.372Z,3.01
2022-12-20T04:02:19.479Z,3.03
2022-12-20T04:04:46.236Z,2.92
2022-12-20T04:07:15.280Z,2.80
2022-12-20T04:09:45.853Z,2.84
2022-12-20T04:12:13.933Z,2.89
2022-12-20T04:14:40.843Z,2.86
2022-12-20T04:17:07.822Z,2.92
2022-12-20T04:19:35.516Z,2.98
2022-12-20T04:22:05.930Z,3.07
2022-12-20T04:24:45.983Z,3.04
2022-12-20T04:27:22.159Z,2.97
2022-12-20T04:29:50.615Z,2.94
2022-12-20T04:32:19.143Z,2.95
2022-12-20T04:34:46.079Z,2.99
2022-12-20T04:37:13.024Z,2.87
2022-12-20T04:39:51.025Z,2.86
2022-12-20T04:42:20.847Z,2.87
2022-12-20T04:44:48.583Z,2.87
2022-12-20T04:47:20.337Z,2.88
2022-12-20T04:49:47.131Z,2.90
2022-12-20T04:52:32.518Z,2.94
2022-12-20T04:54:59.237Z,2.81
2022-12-20T04:57:30.250Z,2.74
2022-12-20T04:59:57.663Z,2.75
2022-12-20T05:02:24.585Z,2.83
2022-12-20T05:04:55.598Z,2.82
2022-12-20T05:07:22.297Z,2.76
2022-12-20T05:09:54.382Z,2.83
2022-12-20T05:12:21.320Z,2.72
2022-12-20T05:14:48.143Z,2.61
2022-12-20T05:17:17.415Z,2.60
2022-12-20T05:19:44.355Z,2.71
2022-12-20T05:22:32.675Z,2.72
2022-12-20T05:25:24.423Z,2.71
2022-12-20T05:27:53.240Z,2.79
2022-12-20T05:30:22.963Z,2.90
2022-12-20T05:32:49.795Z,2.89
2022-12-20T05:35:17.129Z,2.90
2022-12-20T05:37:46.621Z,2.78
2022-12-20T05:40:17.802Z,2.93
2022-12-20T05:42:45.009Z,2.96
2022-12-20T05:45:12.230Z,2.84
2022-12-20T05:47:48.168Z,2.87
2022-12-20T05:50:19.155Z,2.84
2022-12-20T05:53:11.026Z,2.86
2022-12-20T05:55:45.986Z,2.83
2022-12-20T05:58:13.781Z,2.78
2022-12-20T06:00:50.072Z,2.93
2022-12-20T06:03:17.338Z,3.01
2022-12-20T06:05:45.588Z,3.04
2022-12-20T06:08:17.449Z,3.11
2022-12-20T06:10:44.298Z,3.15
2022-12-20T06:13:13.456Z,3.18
2022-12-20T06:15:40.353Z,3.15
2022-12-20T06:18:07.664Z,3.20
2022-12-20T06:20:35.542Z,3.25
2022-12-20T06:23:04.079Z,3.24
2022-12-20T06:25:39.821Z,3.34
2022-12-20T06:28:07.727Z,3.37
2022-12-20T06:30:35.081Z,3.31
2022-12-20T06:33:07.414Z,3.22
2022-12-20T06:35:35.542Z,3.30
2022-12-20T06:38:02.546Z,3.34
2022-12-20T06:40:32.756Z,3.25
2022-12-20T06:43:01.112Z,3.24
2022-12-20T06:45:28.378Z,3.20
2022-12-20T06:47:57.620Z,3.18
2022-12-20T06:50:24.997Z,3.09
2022-12-20T06:52:51.799Z,3.10
2022-12-20T06:55:18.786Z,3.11
2022-12-20T06:57:46.327Z,3.08
2022-12-20T07:00:13.829Z,3.19
2022-12-20T07:02:40.721Z,3.29
2022-12-20T07:05:07.920Z,3.27
2022-12-20T07:07:40.674Z,3.23
2022-12-20T07:10:11.236Z,3.10
2022-12-20T07:12:42.397Z,3.14
2022-12-20T07:15:12.261Z,3.17
2022-12-20T07:17:38.952Z,3.20
2022-12-20T07:20:12.997Z,3.35
2022-12-20T07:22:40.802Z,3.37
2022-12-20T07:25:07.748Z,3.39
2022-12-20T07:27:34.555Z,3.38
2022-12-20T07:30:01.277Z,3.43
2022-12-20T07:32:28.072Z,3.39
2022-12-20T07:34:54.753Z,3.42
2022-12-20T07:37:21.635Z,3.49
2022-12-20T07:39:48.389Z,3.44
2022-12-20T07:42:15.567Z,3.53
2022-12-20T07:44:43.687Z,3.34
2022-12-20T07:47:10.465Z,3.46
2022-12-20T07:49:37.334Z,3.44
2022-12-20T07:52:05.347Z,3.46
2022-12-20T07:54:35.310Z,3.60
2022-12-20T07:57:10.104Z,3.66
2022-12-20T07:59:41.897Z,3.60
2022-12-20T08:02:13.845Z,3.63
2022-12-20T08:04:41.260Z,3.75
2022-12-20T08:07:09.507Z,3.68
2022-12-20T08:09:39.602Z,3.69
2022-12-20T08:12:10.289Z,3.72
2022-12-20T08:14:37.992Z,3.72
2022-12-20T08:17:04.779Z,3.72
2022-12-20T08:19:32.943Z,3.71
2022-12-20T08:21:59.902Z,3.75
2022-12-20T08:24:26.723Z,3.76
2022-12-20T08:26:53.435Z,3.78
2022-12-20T08:29:21.251Z,3.82
2022-12-20T08:31:50.707Z,3.73
2022-12-20T08:34:18.065Z,3.79
2022-12-20T08:36:45.126Z,3.80
2022-12-20T08:39:11.810Z,3.77
2022-12-20T08:41:38.565Z,3.84
2022-12-20T08:44:06.006Z,3.82
2022-12-20T08:46:32.900Z,3.83
2022-12-20T08:48:59.740Z,3.83
2022-12-20T08:51:26.493Z,3.95
2022-12-20T08:53:53.192Z,4.10
2022-12-20T08:56:20.274Z,4.06
2022-12-20T08:58:47.536Z,4.14
2022-12-20T09:01:17.007Z,4.12
2022-12-20T09:03:44.451Z,4.21
2022-12-20T09:06:17.373Z,4.39
2022-12-20T09:08:44.802Z,4.43
2022-12-20T09:11:14.259Z,4.54
2022-12-20T09:13:44.352Z,4.54
2022-12-20T09:16:13.211Z,4.58
2022-12-20T09:18:40.282Z,4.58
2022-12-20T09:21:08.111Z,4.58
2022-12-20T09:23:36.179Z,4.54
2022-12-20T09:26:04.635Z,4.36
2022-12-20T09:28:32.176Z,4.29
2022-12-20T09:31:03.619Z,4.33
2022-12-20T09:33:32.091Z,4.36
2022-12-20T09:35:59.784Z,4.42
2022-12-20T09:38:27.115Z,4.44
2022-12-20T09:40:57.809Z,4.34
2022-12-20T09:43:24.960Z,4.35
2022-12-20T09:45:56.640Z,4.37
2022-12-20T09:48:26.505Z,4.28
2022-12-20T09:51:22.137Z,4.51
2022-12-20T09:54:00.067Z,4.38
2022-12-20T09:56:27.822Z,4.50
2022-12-20T09:59:13.756Z,4.47
2022-12-20T10:01:44.274Z,4.50
2022-12-20T10:04:26.041Z,4.46
2022-12-20T10:07:16.540Z,4.48
2022-12-20T10:10:10.986Z,4.55
2022-12-20T10:12:53.581Z,4.66
2022-12-20T10:15:25.304Z,4.81
2022-12-20T10:18:00.933Z,4.94
2022-12-20T10:20:56.676Z,5.09
2022-12-20T10:23:33.943Z,5.13
2022-12-20T10:26:01.161Z,5.25
2022-12-20T10:28:31.038Z,5.31
2022-12-20T10:31:18.561Z,5.22
2022-12-20T10:33:46.473Z,5.35
2022-12-20T10:36:24.350Z,5.35
2022-12-20T10:38:58.205Z,5.28
2022-12-20T10:41:27.836Z,5.40
2022-12-20T10:44:17.139Z,5.53
2022-12-20T10:46:49.006Z,5.55
2022-12-20T10:49:38.134Z,5.53
2022-12-20T10:52:07.888Z,5.53
2022-12-20T10:54:36.070Z,5.85
2022-12-20T10:57:14.905Z,5.74
2022-12-20T10:59:50.433Z,5.89
2022-12-20T11:02:41.368Z,5.91
2022-12-20T11:05:12.560Z,5.99
2022-12-20T11:08:33.446Z,6.18
2022-12-20T11:10:40.310Z,6.59
2022-12-20T11:13:07.282Z,6.80
2022-12-20T11:15:36.115Z,6.62
2022-12-20T11:18:05.532Z,6.69
2022-12-20T11:20:50.683Z,6.64
2022-12-20T11:23:41.843Z,6.54
2022-12-20T11:26:22.096Z,6.51
2022-12-20T11:29:14.716Z,6.61
2022-12-20T11:31:50.415Z,6.88
2022-12-20T11:34:32.423Z,7.02
2022-12-20T11:37:21.672Z,7.16
2022-12-20T11:40:11.559Z,7.38
2022-12-20T11:43:01.316Z,7.67
2022-12-20T11:45:39.915Z,7.73
2022-12-20T11:48:29.755Z,7.72
2022-12-20T11:51:15.051Z,7.87
2022-12-20T11:54:00.280Z,7.82
2022-12-20T11:56:38.635Z,7.93
2022-12-20T11:59:18.612Z,7.85
2022-12-20T12:02:10.585Z,7.92
2022-12-20T12:04:48.509Z,7.95
2022-12-20T12:07:23.854Z,8.10
2022-12-20T12:10:10.134Z,8.31
2022-12-20T12:12:47.942Z,8.34
2022-12-20T12:15:37.108Z,8.51
2022-12-20T12:18:15.002Z,8.74
2022-12-20T12:21:08.963Z,8.75
2022-12-20T12:24:01.937Z,8.68
2022-12-20T12:26:31.780Z,8.54
2022-12-20T12:29:05.321Z,8.85
2022-12-20T12:31:44.275Z,8.84
2022-12-20T12:34:37.399Z,8.64
2022-12-20T12:37:25.709Z,8.72
2022-12-20T12:40:02.156Z,9.02
2022-12-20T12:42:54.885Z,9.05
2022-12-20T12:45:29.485Z,9.03
2022-12-20T12:48:22.752Z,8.84
2022-12-20T12:50:53.712Z,8.98
2022-12-20T12:53:25.993Z,8.83
2022-12-20T12:56:07.295Z,9.04
2022-12-20T12:58:48.332Z,8.68
2022-12-20T13:01:54.235Z,8.71
2022-12-20T13:04:21.119Z,8.92
2022-12-20T13:06:47.752Z,8.58
2022-12-20T13:09:26.472Z,8.42
2022-12-20T13:12:01.007Z,8.10
2022-12-20T13:14:30.153Z,7.96
2022-12-20T13:17:12.390Z,7.89
2022-12-20T13:19:51.076Z,8.02
2022-12-20T13:22:17.709Z,7.89
2022-12-20T13:24:50.805Z,7.85
2022-12-20T13:27:31.359Z,7.94
2022-12-20T13:30:22.405Z,7.97
2022-12-20T13:32:49.158Z,7.85
2022-12-20T13:35:24.978Z,7.81
2022-12-20T13:38:12.891Z,7.74
2022-12-20T13:40:45.403Z,7.86
2022-12-20T13:43:24.166Z,7.84
2022-12-20T13:46:01.142Z,7.74
2022-12-20T13:48:51.226Z,7.65
2022-12-20T13:51:19.947Z,7.49
2022-12-20T13:54:08.272Z,7.55
2022-12-20T13:56:42.476Z,7.58
2022-12-20T13:59:17.533Z,7.42
2022-12-20T14:01:49.646Z,7.28
2022-12-20T14:04:18.943Z,7.30
2022-12-20T14:06:52.919Z,7.27
2022-12-20T14:09:30.960Z,7.39
2022-12-20T14:12:12.928Z,7.43
2022-12-20T14:14:47.445Z,7.43
2022-12-20T14:17:28.603Z,7.49
2022-12-20T14:20:17.594Z,7.43
2022-12-20T14:23:06.289Z,7.48
2022-12-20T14:26:03.672Z,7.55
2022-12-20T14:28:40.664Z,7.62
2022-12-20T14:31:22.981Z,7.63
2022-12-20T14:33:50.651Z,7.60
2022-12-20T14:36:17.256Z,7.63
2022-12-20T14:38:54.315Z,7.48
2022-12-20T14:41:32.996Z,7.48
2022-12-20T14:44:20.246Z,7.45
2022-12-20T14:46:49.545Z,7.47
2022-12-20T14:49:16.245Z,7.43
2022-12-20T14:51:43.479Z,7.42
2022-12-20T14:57:47.043Z,7.44
2022-12-20T15:00:23.501Z,7.27
2022-12-20T15:02:56.824Z,7.36
2022-12-20T15:05:36.594Z,7.36
2022-12-20T15:08:27.555Z,7.46
2022-12-20T15:11:10.526Z,7.42
2022-12-20T15:13:39.522Z,7.32
2022-12-20T15:16:18.696Z,7.22
2022-12-20T15:19:03.180Z,7.09
2022-12-20T15:21:33.094Z,7.11
2022-12-20T15:24:02.371Z,7.12
2022-12-20T15:26:31.222Z,7.17
2022-12-20T15:28:58.148Z,7.15
2022-12-20T15:31:32.487Z,7.10
2022-12-20T15:34:02.425Z,7.06
2022-12-20T15:36:31.434Z,6.98
2022-12-20T15:39:14.892Z,7.00
2022-12-20T15:41:46.450Z,7.03
2022-12-20T15:44:17.640Z,7.01
2022-12-20T15:46:44.897Z,7.15
2022-12-20T15:49:17.251Z,7.07
2022-12-20T15:51:45.396Z,7.17
2022-12-20T15:54:27.844Z,7.10
2022-12-20T15:56:56.067Z,7.19
2022-12-20T16:02:25.536Z,7.48
2022-12-20T16:04:53.307Z,7.49
2022-12-20T16:07:20.036Z,7.44
2022-12-20T16:09:46.889Z,7.31
2022-12-20T16:12:16.432Z,7.43
2022-12-20T16:14:43.203Z,7.64
2022-12-20T16:17:16.596Z,7.55
2022-12-20T16:19:44.090Z,7.43
2022-12-20T16:22:19.461Z,7.33
2022-12-20T16:24:46.697Z,7.42
2022-12-20T16:27:13.855Z,7.51
2022-12-20T16:29:41.660Z,7.48
2022-12-20T16:32:16.542Z,7.41
2022-12-20T16:34:43.672Z,7.45
2022-12-20T16:37:12.001Z,7.58
2022-12-20T16:39:38.823Z,7.52
2022-12-20T16:42:13.132Z,7.52
2022-12-20T16:44:42.911Z,7.52
2022-12-20T16:47:10.170Z,7.86
2022-12-20T16:49:37.817Z,8.04
2022-12-20T16:52:06.702Z,7.91
2022-12-20T16:54:33.667Z,7.78
2022-12-20T16:57:00.431Z,7.77
2022-12-20T16:59:27.155Z,7.61
2022-12-20T17:01:56.720Z,7.50
2022-12-20T17:04:25.086Z,7.63
2022-12-20T17:06:51.902Z,7.56
2022-12-20T17:09:20.327Z,7.36
2022-12-20T17:11:48.035Z,7.49
2022-12-20T17:14:14.888Z,7.34
2022-12-20T17:16:41.632Z,7.32
2022-12-20T17:19:10.961Z,7.21
2022-12-20T17:24:23.685Z,7.27
2022-12-20T17:26:50.525Z,7.19
2022-12-20T17:29:18.148Z,7.42
2022-12-20T17:31:46.592Z,7.46
2022-12-20T17:34:21.751Z,7.51
2022-12-20T17:36:50.472Z,7.43
2022-12-20T17:39:17.567Z,7.30
2022-12-20T17:41:45.267Z,7.22
2022-12-20T17:44:18.112Z,7.13
2022-12-20T17:46:45.538Z,6.98
2022-12-20T17:49:12.807Z,7.01
2022-12-20T17:51:39.514Z,7.05
2022-12-20T17:54:06.428Z,7.07
2022-12-20T17:56:36.027Z,7.08
2022-12-20T17:59:04.700Z,7.00
2022-12-20T18:01:33.987Z,7.03
2022-12-20T18:04:05.566Z,6.98
2022-12-20T18:06:34.444Z,6.93
2022-12-20T18:09:01.291Z,6.94
2022-12-20T18:11:28.995Z,6.98
2022-12-20T18:13:58.378Z,6.95
2022-12-20T18:16:28.370Z,6.95
2022-12-20T18:18:56.637Z,7.04
2022-12-20T18:21:25.574Z,7.08
2022-12-20T18:23:53.064Z,7.12
2022-12-20T18:26:22.327Z,7.29
2022-12-20T18:28:51.466Z,7.25
2022-12-20T18:31:20.794Z,7.18
2022-12-20T18:33:52.411Z,7.15
2022-12-20T18:36:25.828Z,7.15
2022-12-20T18:38:52.882Z,7.18
2022-12-20T18:41:23.900Z,7.24
2022-12-20T18:43:51.789Z,7.23
2022-12-20T18:46:20.975Z,7.32
2022-12-20T18:48:49.811Z,7.34
2022-12-20T18:51:19.229Z,7.37
2022-12-20T18:53:50.108Z,7.39
2022-12-20T18:56:19.966Z,7.38
2022-12-20T18:58:47.978Z,7.36
2022-12-20T19:01:21.181Z,7.27
2022-12-20T19:03:50.320Z,7.32
2022-12-20T19:06:17.405Z,7.52
2022-12-20T19:08:44.651Z,7.63
2022-12-20T19:11:17.372Z,7.66
2022-12-20T19:13:44.860Z,7.61
2022-12-20T19:16:17.275Z,7.80
2022-12-20T19:18:44.808Z,7.88
2022-12-20T19:21:14.510Z,7.91
2022-12-20T19:23:43.702Z,7.84
2022-12-20T19:26:12.691Z,7.79
2022-12-20T19:28:40.940Z,7.83
2022-12-20T19:31:22.022Z,7.83
2022-12-20T19:33:51.525Z,8.18
2022-12-20T19:36:25.125Z,8.22
2022-12-20T19:38:57.127Z,8.23
2022-12-20T19:41:26.835Z,8.26
2022-12-20T19:43:53.966Z,8.27
2022-12-20T19:46:28.266Z,8.14
2022-12-20T19:48:56.782Z,8.06
2022-12-20T19:51:23.893Z,8.00
2022-12-20T19:53:51.927Z,8.10
2022-12-20T19:56:21.269Z,7.99
2022-12-20T19:58:48.047Z,7.99
2022-12-20T20:01:16.151Z,8.01
2022-12-20T20:03:42.985Z,8.04
2022-12-20T20:06:10.360Z,8.35
2022-12-20T20:08:37.039Z,8.40
2022-12-20T20:11:09.472Z,8.37
2022-12-20T20:13:36.563Z,8.45
2022-12-20T20:16:03.945Z,8.58
2022-12-20T20:18:34.232Z,8.51
2022-12-20T20:21:06.867Z,8.55
2022-12-20T20:23:33.712Z,8.52
2022-12-20T20:26:00.579Z,8.56
2022-12-20T20:28:32.358Z,8.65
2022-12-20T20:30:59.948Z,8.75
2022-12-20T20:33:26.719Z,8.81
2022-12-20T20:35:59.341Z,8.78
2022-12-20T20:38:27.681Z,8.95
2022-12-20T20:40:54.545Z,8.95
2022-12-20T20:43:22.188Z,8.98
2022-12-20T20:45:48.983Z,8.98
2022-12-20T20:48:16.535Z,8.94
2022-12-20T20:50:44.639Z,8.96
2022-12-20T20:53:12.468Z,9.02
2022-12-20T20:55:39.412Z,9.09
2022-12-20T20:58:06.449Z,9.27
2022-12-20T21:00:34.809Z,9.35
2022-12-20T21:03:01.674Z,9.32
2022-12-20T21:06:22.032Z,9.23
2022-12-20T21:08:15.664Z,9.25
2022-12-20T21:10:43.198Z,9.12
2022-12-20T21:13:10.068Z,9.21
2022-12-20T21:15:37.476Z,9.09
2022-12-20T21:18:04.532Z,8.96
2022-12-20T21:20:31.483Z,8.97
2022-12-20T21:22:58.396Z,8.94
2022-12-20T21:25:25.112Z,8.97
2022-12-20T21:27:51.739Z,9.10
2022-12-20T21:30:18.571Z,9.13
2022-12-20T21:32:45.943Z,9.19
2022-12-20T21:35:12.655Z,9.08
2022-12-20T21:37:39.431Z,9.13
2022-12-20T21:40:06.864Z,9.12
2022-12-20T21:42:33.621Z,9.05
2022-12-20T21:45:00.584Z,9.03
2022-12-20T21:47:27.416Z,8.93
2022-12-20T21:49:54.067Z,8.88
2022-12-20T21:52:20.721Z,8.92
2022-12-20T21:54:47.464Z,8.93
2022-12-20T21:57:14.252Z,8.80
2022-12-20T21:59:40.963Z,8.83
2022-12-20T22:02:07.942Z,8.88
2022-12-20T22:04:35.700Z,8.83
2022-12-20T22:07:02.584Z,8.87
2022-12-20T22:09:29.315Z,8.84
2022-12-20T22:11:56.142Z,8.81
2022-12-20T22:14:22.793Z,8.80
2022-12-20T22:16:49.587Z,8.65
2022-12-20T22:19:16.442Z,8.65
2022-12-20T22:21:44.014Z,8.92
2022-12-20T22:24:10.819Z,8.96
2022-12-20T22:26:40.922Z,8.96
2022-12-20T22:29:08.469Z,8.99
2022-12-20T22:31:36.222Z,9.02
2022-12-20T22:34:03.376Z,8.97
2022-12-20T22:36:30.796Z,9.06
2022-12-20T22:38:58.017Z,9.01
2022-12-20T22:41:30.297Z,9.06
2022-12-20T22:44:00.217Z,9.07
2022-12-20T22:46:29.725Z,9.12
2022-12-20T22:48:58.060Z,9.19
2022-12-20T22:51:27.398Z,9.16
2022-12-20T22:53:57.138Z,9.13
2022-12-20T22:56:24.219Z,9.20
2022-12-20T22:58:51.226Z,9.23
2022-12-20T23:01:20.061Z,9.21
2022-12-20T23:03:48.213Z,9.13
2022-12-20T23:06:18.191Z,9.15
2022-12-20T23:08:44.984Z,9.11
2022-12-20T23:11:40.642Z,9.22
2022-12-20T23:14:30.749Z,9.25
2022-12-20T23:16:58.183Z,9.20
2022-12-20T23:19:24.967Z,9.25
2022-12-20T23:22:10.065Z,9.31
2022-12-20T23:24:36.767Z,9.28
2022-12-20T23:27:03.656Z,9.20
2022-12-20T23:29:30.648Z,9.21
2022-12-20T23:31:57.445Z,9.22
2022-12-20T23:34:24.582Z,9.21
2022-12-20T23:36:51.450Z,9.15
2022-12-20T23:39:18.149Z,9.13
2022-12-20T23:41:44.820Z,9.13
2022-12-20T23:44:11.502Z,9.17
2022-12-20T23:46:38.605Z,9.14
2022-12-20T23:49:06.179Z,9.13
2022-12-20T23:51:34.740Z,9.18
2022-12-20T23:54:01.482Z,9.16
2022-12-20T23:56:28.155Z,9.20
2022-12-20T23:58:55.530Z,9.16
